sensor_id;sensor_type;location;lat;lon;timestamp;pressure;altitude;pressure_sealevel;temperature;humidity
78825;BME280;68176;45.554;10.220;2023-10-09T00:02:09;100574.50;;;25.03;51.01
78825;BME280;68176;45.554;10.220;2023-10-09T00:04:46;100549.13;;;24.86;51.06
78825;BME280;68176;45.554;10.220;2023-10-09T00:07:12;100541.69;;;24.81;50.80
78825;BME280;68176;45.554;10.220;2023-10-09T00:09:38;100571.19;;;25.01;51.20
78825;BME280;68176;45.554;10.220;2023-10-09T00:12:22;100571.81;;;24.97;51.11
78825;BME280;68176;45.554;10.220;2023-10-09T00:14:48;100561.91;;;24.97;51.31
78825;BME280;68176;45.554;10.220;2023-10-09T00:17:17;100560.66;;;24.93;51.32
78825;BME280;68176;45.554;10.220;2023-10-09T00:19:46;100550.56;;;24.88;51.26
78825;BME280;68176;45.554;10.220;2023-10-09T00:22:17;100565.66;;;24.89;51.28
78825;BME280;68176;45.554;10.220;2023-10-09T00:24:55;100540.00;;;24.80;51.30
78825;BME280;68176;45.554;10.220;2023-10-09T00:27:38;100547.88;;;24.82;51.07
78825;BME280;68176;45.554;10.220;2023-10-09T00:30:12;100546.19;;;24.81;51.37
78825;BME280;68176;45.554;10.220;2023-10-09T00:32:44;100548.72;;;24.89;51.01
78825;BME280;68176;45.554;10.220;2023-10-09T00:35:30;100540.66;;;24.82;51.38
78825;BME280;68176;45.554;10.220;2023-10-09T00:38:04;100536.94;;;24.77;51.20
78825;BME280;68176;45.554;10.220;2023-10-09T00:40:45;100541.69;;;24.81;51.00
78825;BME280;68176;45.554;10.220;2023-10-09T00:43:21;100536.31;;;24.81;51.07
78825;BME280;68176;45.554;10.220;2023-10-09T00:45:53;100522.69;;;24.70;51.22
78825;BME280;68176;45.554;10.220;2023-10-09T00:48:19;100537.16;;;24.82;51.21
78825;BME280;68176;45.554;10.220;2023-10-09T00:50:55;100529.72;;;24.71;50.81
78825;BME280;68176;45.554;10.220;2023-10-09T00:53:25;100514.41;;;24.65;51.18
78825;BME280;68176;45.554;10.220;2023-10-09T00:56:19;100525.38;;;24.70;50.98
78825;BME280;68176;45.554;10.220;2023-10-09T00:58:56;100525.16;;;24.65;51.01
78825;BME280;68176;45.554;10.220;2023-10-09T01:01:27;100533.00;;;24.73;51.12
78825;BME280;68176;45.554;10.220;2023-10-09T01:04:04;100506.41;;;24.58;51.07
78825;BME280;68176;45.554;10.220;2023-10-09T01:06:37;100530.72;;;24.63;51.00
78825;BME280;68176;45.554;10.220;2023-10-09T01:09:12;100529.72;;;24.71;51.38
78825;BME280;68176;45.554;10.220;2023-10-09T01:11:39;100539.63;;;24.70;50.97
78825;BME280;68176;45.554;10.220;2023-10-09T01:14:29;100533.00;;;24.66;51.24
78825;BME280;68176;45.554;10.220;2023-10-09T01:16:56;100528.06;;;24.70;51.06
78825;BME280;68176;45.554;10.220;2023-10-09T01:19:22;100528.88;;;24.64;51.17
78825;BME280;68176;45.554;10.220;2023-10-09T01:21:54;100533.41;;;24.70;50.88
78825;BME280;68176;45.554;10.220;2023-10-09T01:24:22;100515.06;;;24.60;50.91
78825;BME280;68176;45.554;10.220;2023-10-09T02:39:50;100516.88;;;24.33;50.56
78825;BME280;68176;45.554;10.220;2023-10-09T02:42:18;100523.09;;;24.40;50.59
78825;BME280;68176;45.554;10.220;2023-10-09T02:44:49;100516.69;;;24.28;50.99
78825;BME280;68176;45.554;10.220;2023-10-09T02:47:16;100528.88;;;24.37;51.16
78825;BME280;68176;45.554;10.220;2023-10-09T02:50:04;100531.75;;;24.36;50.71
78825;BME280;68176;45.554;10.220;2023-10-09T02:52:44;100524.13;;;24.33;51.08
78825;BME280;68176;45.554;10.220;2023-10-09T02:55:15;100521.44;;;24.26;51.12
78825;BME280;68176;45.554;10.220;2023-10-09T02:57:49;100506.97;;;24.21;50.94
78825;BME280;68176;45.554;10.220;2023-10-09T03:00:21;100524.72;;;24.28;51.12
78825;BME280;68176;45.554;10.220;2023-10-09T03:02:55;100521.44;;;24.26;51.37
78825;BME280;68176;45.554;10.220;2023-10-09T03:05:29;100512.31;;;24.14;51.00
78825;BME280;68176;45.554;10.220;2023-10-09T03:08:00;100520.19;;;24.22;51.17
78825;BME280;68176;45.554;10.220;2023-10-09T03:10:27;100520.78;;;24.24;51.42
78825;BME280;68176;45.554;10.220;2023-10-09T03:12:53;100518.94;;;24.18;50.89
78825;BME280;68176;45.554;10.220;2023-10-09T03:15:23;100520.34;;;24.14;51.09
78825;BME280;68176;45.554;10.220;2023-10-09T03:17:53;100496.63;;;24.05;50.84
78825;BME280;68176;45.554;10.220;2023-10-09T03:20:23;100515.81;;;24.15;51.16
78825;BME280;68176;45.554;10.220;2023-10-09T03:22:53;100528.81;;;24.18;51.00
78825;BME280;68176;45.554;10.220;2023-10-09T03:25:23;100522.66;;;24.17;51.30
78825;BME280;68176;45.554;10.220;2023-10-09T03:27:53;100535.00;;;24.18;50.87
78825;BME280;68176;45.554;10.220;2023-10-09T03:30:23;100518.09;;;24.11;50.88
78825;BME280;68176;45.554;10.220;2023-10-09T03:32:54;100524.69;;;24.15;50.76
78825;BME280;68176;45.554;10.220;2023-10-09T03:35:23;100504.44;;;24.06;50.99
78825;BME280;68176;45.554;10.220;2023-10-09T03:37:56;100504.84;;;24.03;51.42
78825;BME280;68176;45.554;10.220;2023-10-09T03:40:25;100513.50;;;24.05;51.07
78825;BME280;68176;45.554;10.220;2023-10-09T03:42:53;100480.31;;;23.93;51.07
78825;BME280;68176;45.554;10.220;2023-10-09T03:45:23;100502.19;;;24.03;51.06
78825;BME280;68176;45.554;10.220;2023-10-09T03:47:54;100495.38;;;24.01;50.59
78825;BME280;68176;45.554;10.220;2023-10-09T03:50:40;100499.06;;;24.00;51.06
78825;BME280;68176;45.554;10.220;2023-10-09T03:53:08;100513.09;;;24.08;51.06
78825;BME280;68176;45.554;10.220;2023-10-09T03:55:36;100489.38;;;23.92;51.26
78825;BME280;68176;45.554;10.220;2023-10-09T03:58:12;100505.47;;;24.05;50.92
78825;BME280;68176;45.554;10.220;2023-10-09T04:00:39;100495.56;;;23.99;50.95
78825;BME280;68176;45.554;10.220;2023-10-09T04:03:11;100499.88;;;23.94;50.97
78825;BME280;68176;45.554;10.220;2023-10-09T04:05:37;100506.53;;;24.04;50.90
78825;BME280;68176;45.554;10.220;2023-10-09T04:08:06;100503.84;;;24.04;51.43
78825;BME280;68176;45.554;10.220;2023-10-09T04:10:39;100500.31;;;23.97;50.84
78825;BME280;68176;45.554;10.220;2023-10-09T04:13:33;100487.50;;;23.86;51.01
78825;BME280;68176;45.554;10.220;2023-10-09T04:16:01;100505.44;;;23.99;50.77
78825;BME280;68176;45.554;10.220;2023-10-09T04:18:34;100494.31;;;23.88;51.17
78825;BME280;68176;45.554;10.220;2023-10-09T04:21:04;100499.88;;;23.94;51.19
78825;BME280;68176;45.554;10.220;2023-10-09T04:23:54;100490.38;;;23.84;51.16
78825;BME280;68176;45.554;10.220;2023-10-09T04:26:46;100497.19;;;23.87;51.17
78825;BME280;68176;45.554;10.220;2023-10-09T04:29:12;100497.44;;;23.92;51.33
78825;BME280;68176;45.554;10.220;2023-10-09T04:31:46;100479.66;;;23.78;51.15
78825;BME280;68176;45.554;10.220;2023-10-09T04:34:18;100502.38;;;23.88;51.21
78825;BME280;68176;45.554;10.220;2023-10-09T04:37:03;100497.81;;;23.89;51.03
78825;BME280;68176;45.554;10.220;2023-10-09T04:39:41;100486.03;;;23.77;51.30
78825;BME280;68176;45.554;10.220;2023-10-09T04:42:14;100477.16;;;23.76;51.23
78825;BME280;68176;45.554;10.220;2023-10-09T04:45:02;100472.44;;;23.72;51.00
78825;BME280;68176;45.554;10.220;2023-10-09T04:47:28;100470.75;;;23.71;50.97
78825;BME280;68176;45.554;10.220;2023-10-09T04:50:15;100503.16;;;23.82;51.41
78825;BME280;68176;45.554;10.220;2023-10-09T04:52:43;100489.97;;;23.81;51.00
78825;BME280;68176;45.554;10.220;2023-10-09T04:55:17;100476.38;;;23.76;51.23
78825;BME280;68176;45.554;10.220;2023-10-09T04:57:49;100470.34;;;23.67;51.08
78825;BME280;68176;45.554;10.220;2023-10-09T05:00:34;100469.53;;;23.67;50.92
78825;BME280;68176;45.554;10.220;2023-10-09T05:03:01;100468.91;;;23.65;50.83
78825;BME280;68176;45.554;10.220;2023-10-09T05:05:38;100487.06;;;23.76;51.22
78825;BME280;68176;45.554;10.220;2023-10-09T05:08:10;100486.25;;;23.75;50.90
78825;BME280;68176;45.554;10.220;2023-10-09T05:10:59;100479.00;;;23.63;50.99
78825;BME280;68176;45.554;10.220;2023-10-09T05:13:35;100468.69;;;23.60;50.92
78825;BME280;68176;45.554;10.220;2023-10-09T05:18:53;100481.28;;;23.66;51.00
78825;BME280;68176;45.554;10.220;2023-10-09T05:21:39;100497.34;;;23.66;51.16
78825;BME280;68176;45.554;10.220;2023-10-09T05:24:08;100473.00;;;23.61;51.18
78825;BME280;68176;45.554;10.220;2023-10-09T05:26:47;100492.59;;;23.68;51.30
78825;BME280;68176;45.554;10.220;2023-10-09T05:29:18;100498.16;;;23.66;51.25
78825;BME280;68176;45.554;10.220;2023-10-09T05:32:08;100482.69;;;23.62;51.25
78825;BME280;68176;45.554;10.220;2023-10-09T05:37:29;100485.38;;;23.62;51.27
78825;BME280;68176;45.554;10.220;2023-10-09T05:40:08;100495.69;;;23.65;51.27
78825;BME280;68176;45.554;10.220;2023-10-09T05:42:48;100484.94;;;23.58;51.23
78825;BME280;68176;45.554;10.220;2023-10-09T05:45:24;100479.56;;;23.52;50.83
78825;BME280;68176;45.554;10.220;2023-10-09T05:47:51;100477.94;;;23.51;50.85
78825;BME280;68176;45.554;10.220;2023-10-09T05:50:27;100505.13;;;23.61;51.49
78825;BME280;68176;45.554;10.220;2023-10-09T05:52:54;100508.84;;;23.60;50.78
78825;BME280;68176;45.554;10.220;2023-10-09T05:55:22;100503.91;;;23.57;51.19
78825;BME280;68176;45.554;10.220;2023-10-09T05:57:56;100496.84;;;23.49;50.92
78825;BME280;68176;45.554;10.220;2023-10-09T06:00:40;100510.25;;;23.49;48.37
78825;BME280;68176;45.554;10.220;2023-10-09T06:03:24;100504.34;;;22.00;46.03
78825;BME280;68176;45.554;10.220;2023-10-09T06:05:54;100509.13;;;21.54;46.58
78825;BME280;68176;45.554;10.220;2023-10-09T06:08:23;100513.00;;;21.37;46.94
78825;BME280;68176;45.554;10.220;2023-10-09T06:10:55;100494.34;;;21.22;47.61
78825;BME280;68176;45.554;10.220;2023-10-09T06:13:39;100509.78;;;21.12;47.98
78825;BME280;68176;45.554;10.220;2023-10-09T06:16:11;100502.22;;;21.01;48.19
78825;BME280;68176;45.554;10.220;2023-10-09T06:18:57;100512.44;;;20.98;47.65
78825;BME280;68176;45.554;10.220;2023-10-09T06:21:38;100516.94;;;20.97;47.96
78825;BME280;68176;45.554;10.220;2023-10-09T06:24:30;100519.69;;;20.89;48.47
78825;BME280;68176;45.554;10.220;2023-10-09T06:27:07;100515.53;;;20.87;48.43
78825;BME280;68176;45.554;10.220;2023-10-09T06:29:32;100517.19;;;20.88;48.12
78825;BME280;68176;45.554;10.220;2023-10-09T06:32:03;100514.75;;;21.15;47.95
78825;BME280;68176;45.554;10.220;2023-10-09T06:34:45;100522.56;;;21.61;47.65
78825;BME280;68176;45.554;10.220;2023-10-09T06:37:14;100499.94;;;21.78;46.90
78825;BME280;68176;45.554;10.220;2023-10-09T06:39:52;100499.66;;;22.02;46.87
78825;BME280;68176;45.554;10.220;2023-10-09T06:42:25;100512.38;;;22.21;46.61
78825;BME280;68176;45.554;10.220;2023-10-09T06:45:11;100480.31;;;22.21;46.55
78825;BME280;68176;45.554;10.220;2023-10-09T06:47:57;100522.28;;;22.49;46.53
78825;BME280;68176;45.554;10.220;2023-10-09T06:50:41;100495.31;;;22.44;46.70
78825;BME280;68176;45.554;10.220;2023-10-09T06:53:29;100514.56;;;22.60;46.50
78825;BME280;68176;45.554;10.220;2023-10-09T06:56:14;100503.88;;;22.60;46.83
78825;BME280;68176;45.554;10.220;2023-10-09T07:01:23;100497.94;;;22.65;46.89
78825;BME280;68176;45.554;10.220;2023-10-09T07:04:05;100499.88;;;22.71;47.01
78825;BME280;68176;45.554;10.220;2023-10-09T07:06:50;100502.16;;;22.74;46.73
78825;BME280;68176;45.554;10.220;2023-10-09T07:09:18;100512.47;;;22.77;47.04
78825;BME280;68176;45.554;10.220;2023-10-09T07:11:49;100498.69;;;22.80;47.20
78825;BME280;68176;45.554;10.220;2023-10-09T07:14:17;100508.69;;;22.44;45.47
78825;BME280;68176;45.554;10.220;2023-10-09T07:17:08;100497.81;;;21.88;46.58
78825;BME280;68176;45.554;10.220;2023-10-09T07:19:46;100502.91;;;21.83;47.08
78825;BME280;68176;45.554;10.220;2023-10-09T07:22:12;100514.25;;;21.70;47.51
78825;BME280;68176;45.554;10.220;2023-10-09T07:24:47;100509.28;;;21.67;48.34
78825;BME280;68176;45.554;10.220;2023-10-09T07:27:30;100505.91;;;21.59;47.30
78825;BME280;68176;45.554;10.220;2023-10-09T07:30:17;100480.06;;;21.45;47.68
78825;BME280;68176;45.554;10.220;2023-10-09T07:33:07;100509.22;;;21.61;48.58
78825;BME280;68176;45.554;10.220;2023-10-09T07:35:40;100511.59;;;21.56;49.09
78825;BME280;68176;45.554;10.220;2023-10-09T07:38:12;100511.59;;;21.56;48.81
78825;BME280;68176;45.554;10.220;2023-10-09T07:40:40;100506.63;;;21.53;48.61
78825;BME280;68176;45.554;10.220;2023-10-09T07:43:26;100507.91;;;21.57;48.69
78825;BME280;68176;45.554;10.220;2023-10-09T07:45:56;100528.25;;;21.72;48.73
78825;BME280;68176;45.554;10.220;2023-10-09T07:48:27;100497.25;;;21.57;48.69
78825;BME280;68176;45.554;10.220;2023-10-09T07:51:04;100519.00;;;21.75;48.25
78825;BME280;68176;45.554;10.220;2023-10-09T07:53:39;100509.00;;;21.77;47.95
78825;BME280;68176;45.554;10.220;2023-10-09T07:56:11;100500.84;;;21.85;47.89
78825;BME280;68176;45.554;10.220;2023-10-09T07:58:39;100504.25;;;21.94;47.49
78825;BME280;68176;45.554;10.220;2023-10-09T08:01:14;100488.16;;;21.87;47.23
78825;BME280;68176;45.554;10.220;2023-10-09T08:04:00;100519.50;;;22.14;47.30
78825;BME280;68176;45.554;10.220;2023-10-09T08:06:39;100502.88;;;22.19;47.04
78825;BME280;68176;45.554;10.220;2023-10-09T08:09:05;100500.03;;;22.20;46.63
78825;BME280;68176;45.554;10.220;2023-10-09T08:11:48;100504.84;;;22.31;46.84
78825;BME280;68176;45.554;10.220;2023-10-09T08:14:42;100499.50;;;22.53;45.80
78825;BME280;68176;45.554;10.220;2023-10-09T08:17:24;100503.69;;;22.62;44.97
78825;BME280;68176;45.554;10.220;2023-10-09T08:19:52;100491.72;;;22.58;45.52
78825;BME280;68176;45.554;10.220;2023-10-09T08:22:36;100498.47;;;22.54;45.70
78825;BME280;68176;45.554;10.220;2023-10-09T08:25:11;100502.94;;;22.68;44.73
78825;BME280;68176;45.554;10.220;2023-10-09T08:27:56;100496.19;;;22.72;45.01
78825;BME280;68176;45.554;10.220;2023-10-09T08:30:23;100519.56;;;22.91;43.72
78825;BME280;68176;45.554;10.220;2023-10-09T08:32:50;100501.06;;;22.96;44.60
78825;BME280;68176;45.554;10.220;2023-10-09T08:35:35;100525.47;;;23.14;44.82
78825;BME280;68176;45.554;10.220;2023-10-09T08:38:11;100508.59;;;23.14;44.61
78825;BME280;68176;45.554;10.220;2023-10-09T08:40:41;100498.50;;;23.09;44.42
78825;BME280;68176;45.554;10.220;2023-10-09T08:46:10;100518.53;;;23.26;43.43
78825;BME280;68176;45.554;10.220;2023-10-09T08:48:38;100477.69;;;23.11;44.07
78825;BME280;68176;45.554;10.220;2023-10-09T08:51:04;100502.06;;;23.29;43.81
78825;BME280;68176;45.554;10.220;2023-10-09T08:53:32;100526.53;;;23.48;43.74
78825;BME280;68176;45.554;10.220;2023-10-09T08:56:02;100495.19;;;23.42;43.80
78825;BME280;68176;45.554;10.220;2023-10-09T08:58:32;100525.94;;;23.59;43.98
78825;BME280;68176;45.554;10.220;2023-10-09T09:01:02;100490.97;;;23.32;43.24
78825;BME280;68176;45.554;10.220;2023-10-09T09:03:39;100503.25;;;23.55;43.58
78825;BME280;68176;45.554;10.220;2023-10-09T09:06:06;100511.31;;;23.61;42.79
78825;BME280;68176;45.554;10.220;2023-10-09T09:08:33;100497.38;;;23.72;43.29
78825;BME280;68176;45.554;10.220;2023-10-09T09:11:08;100501.88;;;23.72;39.92
78825;BME280;68176;45.554;10.220;2023-10-09T09:13:41;100495.72;;;23.78;41.80
78825;BME280;68176;45.554;10.220;2023-10-09T09:16:34;100491.63;;;23.82;41.76
78825;BME280;68176;45.554;10.220;2023-10-09T09:19:05;100500.28;;;23.84;41.79
78825;BME280;68176;45.554;10.220;2023-10-09T09:21:51;100492.06;;;23.85;41.85
78825;BME280;68176;45.554;10.220;2023-10-09T09:24:20;100486.72;;;23.92;41.77
78825;BME280;68176;45.554;10.220;2023-10-09T09:26:46;100489.19;;;24.00;41.80
78825;BME280;68176;45.554;10.220;2023-10-09T09:29:14;100492.91;;;24.06;42.12
78825;BME280;68176;45.554;10.220;2023-10-09T09:31:56;100488.84;;;24.23;41.59
78825;BME280;68176;45.554;10.220;2023-10-09T09:34:43;100482.44;;;24.24;41.39
78825;BME280;68176;45.554;10.220;2023-10-09T09:37:18;100476.88;;;24.32;41.20
78825;BME280;68176;45.554;10.220;2023-10-09T09:39:44;100487.19;;;24.35;41.41
78825;BME280;68176;45.554;10.220;2023-10-09T09:42:13;100468.84;;;24.38;39.44
78825;BME280;68176;45.554;10.220;2023-10-09T09:44:39;100452.53;;;24.47;40.62
78825;BME280;68176;45.554;10.220;2023-10-09T09:47:15;100472.75;;;24.56;40.96
78825;BME280;68176;45.554;10.220;2023-10-09T09:49:51;100471.06;;;24.68;40.88
78825;BME280;68176;45.554;10.220;2023-10-09T09:52:29;100473.56;;;24.89;40.53
78825;BME280;68176;45.554;10.220;2023-10-09T09:55:12;100443.84;;;24.84;39.71
78825;BME280;68176;45.554;10.220;2023-10-09T09:57:48;100448.59;;;24.95;39.55
78825;BME280;68176;45.554;10.220;2023-10-09T10:00:22;100449.41;;;25.02;39.77
78825;BME280;68176;45.554;10.220;2023-10-09T10:03:22;100453.06;;;25.14;38.34
78825;BME280;68176;45.554;10.220;2023-10-09T10:05:54;100443.78;;;25.10;39.85
78825;BME280;68176;45.554;10.220;2023-10-09T10:08:22;100453.44;;;25.24;40.11
78825;BME280;68176;45.554;10.220;2023-10-09T10:10:56;100446.41;;;25.30;39.10
78825;BME280;68176;45.554;10.220;2023-10-09T10:16:11;100450.19;;;25.60;37.90
78825;BME280;68176;45.554;10.220;2023-10-09T10:19:03;100445.22;;;25.64;39.40
78825;BME280;68176;45.554;10.220;2023-10-09T10:21:44;100441.88;;;25.75;39.57
78825;BME280;68176;45.554;10.220;2023-10-09T10:29:36;100435.88;;;26.04;37.40
78825;BME280;68176;45.554;10.220;2023-10-09T10:32:04;100436.25;;;26.08;38.07
78825;BME280;68176;45.554;10.220;2023-10-09T10:40:04;100427.72;;;26.17;38.85
78825;BME280;68176;45.554;10.220;2023-10-09T10:42:49;100417.13;;;26.22;39.11
78825;BME280;68176;45.554;10.220;2023-10-09T10:45:38;100408.81;;;26.30;39.21
78825;BME280;68176;45.554;10.220;2023-10-09T10:48:09;100407.09;;;26.36;38.87
78825;BME280;68176;45.554;10.220;2023-10-09T10:50:57;100393.13;;;26.45;37.98
78825;BME280;68176;45.554;10.220;2023-10-09T10:53:23;100396.41;;;26.47;38.35
78825;BME280;68176;45.554;10.220;2023-10-09T10:56:01;100394.94;;;26.51;38.62
78825;BME280;68176;45.554;10.220;2023-10-09T10:58:40;100386.78;;;26.58;38.34
78825;BME280;68176;45.554;10.220;2023-10-09T11:01:34;100377.00;;;26.64;38.26
78825;BME280;68176;45.554;10.220;2023-10-09T11:04:28;100382.69;;;26.74;37.69
78825;BME280;68176;45.554;10.220;2023-10-09T11:07:02;100365.34;;;26.70;38.45
78825;BME280;68176;45.554;10.220;2023-10-09T11:09:52;100353.72;;;26.76;38.21
78825;BME280;68176;45.554;10.220;2023-10-09T11:12:26;100360.47;;;26.85;37.87
78825;BME280;68176;45.554;10.220;2023-10-09T11:15:06;100352.75;;;26.88;37.50
78825;BME280;68176;45.554;10.220;2023-10-09T11:42:03;100318.09;;;26.92;40.32
78825;BME280;68176;45.554;10.220;2023-10-09T11:45:02;100308.50;;;26.84;40.33
78825;BME280;68176;45.554;10.220;2023-10-09T11:47:57;100303.41;;;26.94;40.87
78825;BME280;68176;45.554;10.220;2023-10-09T11:50:48;100313.63;;;27.04;40.92
78825;BME280;68176;45.554;10.220;2023-10-09T11:53:46;100317.63;;;27.13;41.18
78825;BME280;68176;45.554;10.220;2023-10-09T11:56:23;100311.78;;;27.16;41.45
78825;BME280;68176;45.554;10.220;2023-10-09T11:59:02;100287.50;;;27.04;41.55
78825;BME280;68176;45.554;10.220;2023-10-09T12:01:30;100301.03;;;27.16;41.77
78825;BME280;68176;45.554;10.220;2023-10-09T12:04:03;100308.31;;;27.27;41.80
78825;BME280;68176;45.554;10.220;2023-10-09T12:06:34;100294.72;;;27.22;42.00
78825;BME280;68176;45.554;10.220;2023-10-09T12:09:08;100289.59;;;27.32;42.00
78825;BME280;68176;45.554;10.220;2023-10-09T12:11:41;100289.47;;;27.39;42.11
78825;BME280;68176;45.554;10.220;2023-10-09T12:14:10;100270.84;;;27.37;42.24
78825;BME280;68176;45.554;10.220;2023-10-09T12:20:10;100258.78;;;27.40;42.30
78825;BME280;68176;45.554;10.220;2023-10-09T12:23:02;100258.25;;;27.49;42.94
78825;BME280;68176;45.554;10.220;2023-10-09T12:25:42;100268.81;;;27.63;42.61
78825;BME280;68176;45.554;10.220;2023-10-09T12:28:15;100259.22;;;27.67;42.72
78825;BME280;68176;45.554;10.220;2023-10-09T12:30:47;100254.31;;;27.64;42.88
78825;BME280;68176;45.554;10.220;2023-10-09T12:33:17;100229.34;;;27.57;42.81
78825;BME280;68176;45.554;10.220;2023-10-09T12:35:56;100253.13;;;27.71;43.11
78825;BME280;68176;45.554;10.220;2023-10-09T12:46:13;100255.00;;;27.94;43.43
78825;BME280;68176;45.554;10.220;2023-10-09T12:52:24;100203.53;;;27.84;43.31
78825;BME280;68176;45.554;10.220;2023-10-09T13:03:33;100232.50;;;28.23;43.73
78825;BME280;68176;45.554;10.220;2023-10-09T13:06:04;100210.56;;;28.20;43.85
78825;BME280;68176;45.554;10.220;2023-10-09T13:21:28;100192.06;;;28.51;43.56
78825;BME280;68176;45.554;10.220;2023-10-09T13:24:25;100170.59;;;28.45;43.66
78825;BME280;68176;45.554;10.220;2023-10-09T13:27:10;100194.69;;;28.63;44.02
78825;BME280;68176;45.554;10.220;2023-10-09T13:47:07;100171.09;;;28.98;43.32
78825;BME280;68176;45.554;10.220;2023-10-09T13:49:47;100149.28;;;28.88;43.81
